createdAt,value
2022-07-25T04:00:30.584Z,23.25
2022-07-25T04:05:30.535Z,23.39
2022-07-25T04:10:30.478Z,23.47
2022-07-25T04:15:37.469Z,23.55
2022-07-25T04:20:30.372Z,23.58
2022-07-25T04:25:30.316Z,23.73
2022-07-25T04:30:30.264Z,23.92
2022-07-25T04:35:30.211Z,24.17
2022-07-25T04:40:30.159Z,25.09
2022-07-25T04:45:30.182Z,26.14
2022-07-25T04:50:30.054Z,28.15
2022-07-25T04:55:30.000Z,29.49
2022-07-25T05:00:29.953Z,29.78
2022-07-25T05:05:29.889Z,29.28
2022-07-25T05:10:29.853Z,28.04
2022-07-25T05:15:29.788Z,27.97
2022-07-25T05:20:29.728Z,27.66
2022-07-25T05:25:29.685Z,28.48
2022-07-25T05:30:29.630Z,27.11
2022-07-25T05:35:29.579Z,27.00
2022-07-25T05:40:29.517Z,27.25
2022-07-25T05:45:29.477Z,26.57
2022-07-25T05:50:29.425Z,26.27
2022-07-25T05:55:29.371Z,26.10
2022-07-25T06:00:29.313Z,26.35
2022-07-25T06:05:29.260Z,26.61
2022-07-25T06:10:29.209Z,26.86
2022-07-25T06:15:29.154Z,28.00
2022-07-25T06:20:29.099Z,28.44
2022-07-25T06:25:29.047Z,30.42
2022-07-25T06:30:28.995Z,30.57
2022-07-25T06:35:28.963Z,30.40
2022-07-25T06:40:28.892Z,30.00
2022-07-25T06:45:28.840Z,30.49
2022-07-25T06:50:28.786Z,30.99
2022-07-25T06:55:28.738Z,31.76
2022-07-25T07:00:28.757Z,31.54
2022-07-25T07:05:28.630Z,32.36
2022-07-25T07:10:28.593Z,31.33
2022-07-25T07:15:28.531Z,32.86
2022-07-25T07:20:28.476Z,32.46
2022-07-25T07:25:28.641Z,31.29
2022-07-25T07:30:52.214Z,32.63
2022-07-25T07:35:29.320Z,33.80
2022-07-25T07:40:28.275Z,33.17
2022-07-25T07:45:28.225Z,31.65
2022-07-25T07:50:28.175Z,32.85
2022-07-25T07:55:28.118Z,33.71
2022-07-25T08:00:28.074Z,32.70
2022-07-25T08:05:28.022Z,33.08
2022-07-25T08:10:27.965Z,33.46
2022-07-25T08:15:27.914Z,34.02
2022-07-25T08:20:37.985Z,33.87
2022-07-25T08:25:28.815Z,33.97
2022-07-25T08:30:27.766Z,33.33
2022-07-25T08:35:27.719Z,32.39
2022-07-25T08:40:27.767Z,31.43
2022-07-25T08:45:27.615Z,31.28
2022-07-25T08:50:27.564Z,30.49
2022-07-25T08:55:27.510Z,30.43
2022-07-25T09:00:27.454Z,30.43
2022-07-25T09:05:27.409Z,30.60
2022-07-25T09:10:27.352Z,31.34
2022-07-25T09:15:27.303Z,34.07
2022-07-25T09:20:27.256Z,34.97
2022-07-25T09:25:27.203Z,34.78
2022-07-25T09:30:27.154Z,35.92
2022-07-25T09:35:27.113Z,35.31
2022-07-25T09:40:27.045Z,34.73
2022-07-25T09:45:31.335Z,32.93
2022-07-25T09:50:26.949Z,30.93
2022-07-25T09:55:26.900Z,31.47
2022-07-25T10:00:26.847Z,30.77
2022-07-25T10:05:26.798Z,30.07
2022-07-25T10:10:26.752Z,29.46
2022-07-25T10:15:33.782Z,28.59
2022-07-25T10:20:26.655Z,28.46
2022-07-25T10:25:26.589Z,28.30
2022-07-25T10:30:26.615Z,27.67
2022-07-25T10:35:26.480Z,28.03
2022-07-25T10:40:26.430Z,27.85
2022-07-25T10:45:26.375Z,27.69
2022-07-25T10:50:53.386Z,27.70
2022-07-25T10:55:27.271Z,29.65
2022-07-25T11:00:26.227Z,29.54
2022-07-25T11:05:26.173Z,29.65
2022-07-25T11:10:26.121Z,29.87
2022-07-25T11:15:26.068Z,29.75
2022-07-25T11:20:26.017Z,29.18
2022-07-25T11:25:25.957Z,29.35
2022-07-25T11:30:25.909Z,30.42
2022-07-25T11:35:25.854Z,29.63
2022-07-25T11:40:25.803Z,30.26
2022-07-25T11:45:25.750Z,30.35
2022-07-25T11:50:25.700Z,30.10
2022-07-25T11:55:25.648Z,30.51
2022-07-25T12:00:25.596Z,30.25
2022-07-25T12:05:25.541Z,29.66
2022-07-25T12:10:25.492Z,29.59
2022-07-25T12:15:25.440Z,30.01
2022-07-25T12:20:25.389Z,30.65
2022-07-25T12:25:30.727Z,31.38
2022-07-25T12:30:26.303Z,30.87
2022-07-25T12:35:25.237Z,30.49
2022-07-25T12:40:25.182Z,30.37
2022-07-25T12:45:25.119Z,30.01
2022-07-25T12:50:25.080Z,29.88
2022-07-25T12:55:25.027Z,29.56
2022-07-25T13:00:25.000Z,29.89
2022-07-25T13:05:24.912Z,28.94
2022-07-25T13:10:24.878Z,28.94
2022-07-25T13:15:24.832Z,29.01
2022-07-25T13:20:24.758Z,29.06
2022-07-25T13:25:24.717Z,28.77
2022-07-25T13:30:24.674Z,29.39
2022-07-25T13:35:31.645Z,30.66
2022-07-25T13:40:25.559Z,31.13
2022-07-25T13:45:24.560Z,31.49
2022-07-25T13:50:24.466Z,30.97
2022-07-25T13:55:24.393Z,30.66
2022-07-25T14:00:24.351Z,30.46
2022-07-25T14:05:24.335Z,30.35
2022-07-25T14:10:24.236Z,30.40
2022-07-25T14:15:24.197Z,29.90
2022-07-25T14:20:24.152Z,30.38
2022-07-25T14:25:24.082Z,29.91
2022-07-25T14:30:24.065Z,28.92
2022-07-25T14:35:27.471Z,29.22
2022-07-25T14:40:24.940Z,28.66
2022-07-25T14:45:23.875Z,28.62
2022-07-25T14:50:23.833Z,28.53
2022-07-25T14:55:23.792Z,28.56
2022-07-25T15:00:27.708Z,28.50
2022-07-25T15:05:24.675Z,28.46
2022-07-25T15:10:23.631Z,28.33
2022-07-25T15:15:23.588Z,28.17
2022-07-25T15:20:23.511Z,27.79
2022-07-25T15:30:29.093Z,27.60
2022-07-25T15:35:23.349Z,27.13
2022-07-25T15:40:23.306Z,26.91
2022-07-25T15:45:32.970Z,27.07
2022-07-25T15:50:24.217Z,26.68
2022-07-25T15:55:23.138Z,25.95
2022-07-25T16:00:29.009Z,25.86
2022-07-25T16:05:24.055Z,25.87
2022-07-25T16:10:22.983Z,26.03
2022-07-25T16:15:29.978Z,26.86
2022-07-25T16:20:22.876Z,27.64
2022-07-25T16:25:22.837Z,27.65
2022-07-25T16:30:22.787Z,27.44
2022-07-25T16:35:22.716Z,28.12
2022-07-25T16:40:27.244Z,28.41
2022-07-25T16:45:22.626Z,28.16
2022-07-25T16:50:22.556Z,27.49
2022-07-25T16:55:22.548Z,27.29
2022-07-25T17:00:22.494Z,27.12
2022-07-25T17:05:22.448Z,26.77
2022-07-25T17:10:22.359Z,26.23
2022-07-25T17:15:22.366Z,25.79
2022-07-25T17:20:22.240Z,25.70
2022-07-25T17:25:22.196Z,25.68
2022-07-25T17:30:22.161Z,25.62
2022-07-25T17:35:22.079Z,25.72
2022-07-25T17:40:22.042Z,26.00
2022-07-25T17:45:21.984Z,25.93
2022-07-25T17:50:24.614Z,25.61
2022-07-25T17:55:22.873Z,25.53
2022-07-25T18:00:21.820Z,25.41
2022-07-25T18:05:21.774Z,25.58
2022-07-25T18:10:21.699Z,25.82
2022-07-25T18:15:21.659Z,25.93
2022-07-25T18:20:21.612Z,25.84
2022-07-25T18:25:21.537Z,25.50
2022-07-25T18:30:24.748Z,25.35
2022-07-25T18:35:22.447Z,25.35
2022-07-25T18:40:21.370Z,24.98
2022-07-25T18:45:21.327Z,24.91
2022-07-25T18:50:21.316Z,24.90
2022-07-25T18:55:21.216Z,24.76
2022-07-25T19:00:21.208Z,24.56
2022-07-25T19:05:21.159Z,24.49
2022-07-25T19:10:21.061Z,24.35
2022-07-25T19:15:21.022Z,24.17
2022-07-25T19:20:20.981Z,24.25
2022-07-25T19:25:20.900Z,24.04
2022-07-25T19:30:20.852Z,23.96
2022-07-25T19:35:26.081Z,23.91
2022-07-25T19:40:21.759Z,23.71
2022-07-25T19:45:20.680Z,23.67
2022-07-25T19:50:20.639Z,23.55
2022-07-25T19:55:20.601Z,23.36
2022-07-25T20:00:20.514Z,23.54
2022-07-25T20:05:20.491Z,23.48
2022-07-25T20:10:20.408Z,23.31
2022-07-25T20:15:20.368Z,23.26
2022-07-25T20:20:20.317Z,23.05
2022-07-25T20:25:20.249Z,22.97
2022-07-25T20:30:20.206Z,22.87
2022-07-25T20:35:20.169Z,22.71
2022-07-25T20:40:20.082Z,22.67
2022-07-25T20:45:20.041Z,22.68
2022-07-25T20:50:20.001Z,22.72
2022-07-25T20:55:19.922Z,22.68
2022-07-25T21:00:19.879Z,22.66
2022-07-25T21:05:19.835Z,22.56
2022-07-25T21:10:19.761Z,22.39
2022-07-25T21:15:19.715Z,22.22
2022-07-25T21:20:19.679Z,22.38
2022-07-25T21:25:19.606Z,22.37
2022-07-25T21:30:19.555Z,22.51
2022-07-25T21:35:19.513Z,22.53
2022-07-25T21:40:19.436Z,22.52
2022-07-25T21:45:19.394Z,22.44
2022-07-25T21:50:24.400Z,22.43
2022-07-25T21:55:19.271Z,22.48
2022-07-25T22:00:19.228Z,22.49
2022-07-25T22:05:19.196Z,22.43
2022-07-25T22:10:19.113Z,22.42
2022-07-25T22:15:19.072Z,22.40
2022-07-25T22:20:26.062Z,22.47
2022-07-25T22:25:18.943Z,22.42
2022-07-25T22:30:19.719Z,22.41
2022-07-25T22:35:18.853Z,22.41
2022-07-25T22:40:18.785Z,22.32
2022-07-25T22:45:18.746Z,22.24
2022-07-25T22:50:18.698Z,22.25
2022-07-25T22:55:18.623Z,22.20
2022-07-25T23:00:18.588Z,22.33
2022-07-25T23:05:18.562Z,22.16
2022-07-25T23:10:18.463Z,22.02
2022-07-25T23:15:18.424Z,21.72
2022-07-25T23:20:18.445Z,21.68
2022-07-25T23:25:18.302Z,21.45
